24h
KLIENDITUGI:
Saartelennuliinid: +372 58856336 (24/7)
Estairi piletikassa lennujaamas:
+372 6058887; +372 55603687

10.11.2018 hommikune Transaviabaltika lend KTB672 Tallinn - Kärdla ja KTB673 Kärdla – Tallinn väljalend jääb ära. Lennu ära jäämise põhjustab ilmastikuolu Kärdla lennuväljal. Reisijatele võimaldatakse tasuta lennupileti ümberbroneerimine reisija soovi kohasele mõnele teisele Tallinn-Kärdla või Kärdla-Tallinn lennule. Reisijatele kes ei soovi lennupileti ümberbroneerimist teisele lennule tagastatakse piletiraha. Oma soovist tuleb teada anda e-mailile [email protected] Lisainformatsioon telefonil 58856336.

EEKA Kärdla lennuväli

FCEO32 EETN 100500 TAF EEKA 100500Z 1006/1012 13008KT 3000 BR OVC002

TEMPO 1006/1010 0500 FG VV001 BECMG 1010/1012 8000 BKN005 OVC010=

METAR EEKA 100550Z 12009KT 3900 BR OVC002 05/05 Q1019=
Kuupäev: 
10/11/2018